Pagrindinis puslapis
METAR-TAF:

METAR-TAF

Oro uostai :

Bahreino tarptautinis oro uostas

Bahreinas, Bahreinas

platuma: 26-16N, ilguma: 050-39E, Aukštis: 2 m

Dabartinis oras

Ataskaita buvo paskelbta 17 minutes, ne 11:30 UTC
Vėjas 7 kt iš Šiaurės Rytų, svyruoja nuo Šiaurės/Šiaurės Rytų ir Rytų
Temperatūra 34°C
Drėgmė 56%
Slėgis 1013 hPa
Matomumas 10 km arba daugiau
Mažai debesys ne aukštis 3000 ft

METAR: OBBI 141130Z 04007KT 020V080 9999 FEW030 34/24 Q1013 NOSIG

Laikas: 14:47 (11:47 UTC)

Prognozė

Ataskaita buvo paskelbta 47 minutes, ne 11:00 UTC
Prognozė galioja nuo 14 metu 12 UTC su 15 metu 18 UTC
Vėjas 8 kt iš Rytų/Šiaurės Rytų
Matomumas 10 km arba daugiau
nėra debesų žemiau 1500 m ir nėra kamuolinių lietaus debesų
Tikimybė 30% :
Laikinai
nuo 14 metu 23 UTC su 15 metu 05 UTC
Matomumas: 5000 m
migla

TAF: OBBI 141100Z 1412/1518 07008KT CAVOK PROB30 TEMPO 1423/1505 5000 HZ

Orai ataskaitas ir orų prognozės (METAR, TAF).

turimą stotys yra geltonos ir raudonos taškus žemėlapyje.

Perkelti pele per norėdami pamatyti stoties vardą.

Tada spustelėkite, norėdami matyti oro stebėjimo ir prognozės.

Norėdami pakeisti žemėlapį: spustelėkite ant žalios mygtukų su juodo kryžiaus žemyn,; žalią mygtuką su brūkšneliu, jei norite nutolinti; arba žalių rodyklių gretimoms žemėlapius.


METAR-TAF: